Time;durP1;ratioP1;P1;durP2;ratioP2;P2;SDS_P1;SDS_P2;PMS_P1;PMS_P2;Temp;Humidity;BMP_temperature;BMP_pressure;BME280_temperature;BME280_humidity;BME280_pressure;Samples;Min_cycle;Max_cycle;Signal;HPM_P1;HPM_P2
2023/03/16 00:01:16;;;;;;;6.68;4.82;;;4.00;71.40;;;;;;4971595;28;20065;-62
2023/03/16 00:03:42;;;;;;;6.80;4.53;;;4.00;71.30;;;;;;4978543;28;20042;-61
2023/03/16 00:06:07;;;;;;;5.47;4.32;;;4.00;71.50;;;;;;4978095;28;20034;-60
2023/03/16 00:08:34;;;;;;;5.78;4.60;;;4.00;71.40;;;;;;4979534;28;20068;-60
2023/03/16 00:11:01;;;;;;;7.43;4.95;;;3.90;71.50;;;;;;4978807;28;20034;-63
2023/03/16 00:13:27;;;;;;;6.32;5.00;;;4.00;71.50;;;;;;4977792;28;20567;-59
2023/03/16 00:15:58;;;;;;;7.60;5.25;;;3.90;72.60;;;;;;4977949;28;20771;-63
2023/03/16 00:18:26;;;;;;;6.18;4.72;;;3.80;71.90;;;;;;4983301;28;20525;-61
2023/03/16 00:20:54;;;;;;;7.68;5.05;;;3.80;71.90;;;;;;4975052;28;20045;-61
2023/03/16 00:23:25;;;;;;;5.95;5.35;;;3.80;72.00;;;;;;4979070;28;20042;-60
2023/03/16 00:25:52;;;;;;;6.38;5.30;;;3.70;72.00;;;;;;4983602;28;20030;-61
2023/03/16 00:28:18;;;;;;;6.45;5.43;;;3.70;72.00;;;;;;4979223;28;20045;-60
2023/03/16 00:30:46;;;;;;;6.80;5.00;;;3.60;72.20;;;;;;4980855;28;20042;-63
2023/03/16 00:33:11;;;;;;;6.63;5.22;;;3.60;72.60;;;;;;4983856;28;20058;-62
2023/03/16 00:35:37;;;;;;;7.00;5.18;;;3.60;72.70;;;;;;4978439;28;20134;-61
2023/03/16 00:38:03;;;;;;;7.63;5.22;;;3.50;72.60;;;;;;4984426;28;20110;-61
2023/03/16 00:40:29;;;;;;;7.35;4.97;;;3.50;72.50;;;;;;4982294;28;20536;-61
2023/03/16 00:42:55;;;;;;;9.50;5.10;;;3.50;72.70;;;;;;4983977;28;20482;-60
2023/03/16 00:45:22;;;;;;;9.98;5.50;;;3.50;72.70;;;;;;4978480;28;20326;-59
2023/03/16 00:47:48;;;;;;;7.40;5.30;;;3.40;72.70;;;;;;4985435;28;20042;-60
2023/03/16 00:50:14;;;;;;;9.40;5.97;;;3.40;72.80;;;;;;4984084;28;20065;-62
2023/03/16 00:52:41;;;;;;;8.65;5.65;;;3.40;73.00;;;;;;4985746;28;20073;-61
2023/03/16 00:55:07;;;;;;;6.45;4.95;;;3.40;73.20;;;;;;4989139;28;20117;-60
2023/03/16 00:57:33;;;;;;;7.82;6.00;;;3.30;73.20;;;;;;4988042;28;20295;-59
2023/03/16 00:59:59;;;;;;;8.80;5.30;;;3.30;73.20;;;;;;4983813;28;20521;-62
2023/03/16 01:02:24;;;;;;;6.88;5.47;;;3.30;73.30;;;;;;4983744;28;20049;-62
2023/03/16 01:04:51;;;;;;;7.70;5.57;;;3.30;73.20;;;;;;4985509;28;20125;-58
2023/03/16 01:07:17;;;;;;;7.93;5.55;;;3.20;74.20;;;;;;4986561;28;20526;-60
2023/03/16 01:09:43;;;;;;;7.15;5.75;;;3.20;73.50;;;;;;4980607;28;20205;-62
2023/03/16 01:12:15;;;;;;;6.40;5.22;;;3.20;73.60;;;;;;4978262;28;20577;-62
2023/03/16 01:14:44;;;;;;;8.50;5.47;;;3.20;73.60;;;;;;4977352;28;20049;-63
2023/03/16 01:17:12;;;;;;;7.80;5.40;;;3.20;73.50;;;;;;4983605;28;20213;-59
2023/03/16 01:19:38;;;;;;;9.55;5.22;;;3.10;73.50;;;;;;4982902;28;20034;-62
2023/03/16 01:22:05;;;;;;;7.90;5.43;;;3.10;73.70;;;;;;4982076;28;20038;-61
2023/03/16 01:24:31;;;;;;;8.98;5.60;;;3.10;73.90;;;;;;4980722;28;20092;-61
2023/03/16 01:26:57;;;;;;;7.72;5.22;;;3.10;74.00;;;;;;4981393;28;20600;-62
2023/03/16 01:29:24;;;;;;;6.90;5.75;;;3.00;74.00;;;;;;4983626;28;20447;-61
2023/03/16 01:31:49;;;;;;;7.07;5.30;;;3.00;74.10;;;;;;4981563;28;20070;-61
2023/03/16 01:34:17;;;;;;;6.90;5.15;;;3.00;74.40;;;;;;4978335;28;20143;-59
2023/03/16 01:36:45;;;;;;;6.78;5.45;;;3.00;74.50;;;;;;4978454;28;20101;-60
2023/03/16 01:39:11;;;;;;;6.72;5.32;;;3.00;74.50;;;;;;4975548;28;20038;-61
2023/03/16 01:41:38;;;;;;;8.10;5.78;;;2.90;74.50;;;;;;4981586;28;20039;-60
2023/03/16 01:44:04;;;;;;;8.23;6.30;;;2.90;74.50;;;;;;4982715;28;20069;-62
2023/03/16 01:46:30;;;;;;;6.25;5.28;;;2.90;74.60;;;;;;4981134;28;20410;-61
2023/03/16 01:48:59;;;;;;;7.95;6.32;;;2.80;74.60;;;;;;4984040;28;20096;-60
2023/03/16 01:51:55;;;;;;;9.00;5.80;;;2.80;74.60;;;;;;4979319;28;20092;-60
2023/03/16 01:54:20;;;;;;;7.85;5.93;;;2.80;75.20;;;;;;4982867;28;20042;-62
2023/03/16 01:56:55;;;;;;;8.77;5.97;;;2.80;74.60;;;;;;4978221;28;20594;-57
2023/03/16 01:59:23;;;;;;;;;;;2.80;74.90;;;;;;4979355;28;20564;-62
2023/03/16 02:01:50;;;;;;;7.75;5.97;;;2.80;75.40;;;;;;4975073;28;20305;-62
2023/03/16 02:04:51;;;;;;;8.60;6.22;;;2.80;74.10;;;;;;4979925;28;20064;-62
2023/03/16 02:07:21;;;;;;;9.60;5.82;;;2.80;74.40;;;;;;4967901;28;20244;-62
2023/03/16 02:09:50;;;;;;;9.20;6.25;;;2.80;74.10;;;;;;4980810;28;20041;-60
2023/03/16 02:12:17;;;;;;;9.07;6.53;;;2.70;74.20;;;;;;4976355;28;20498;-62
2023/03/16 02:14:47;;;;;;;8.27;6.32;;;2.70;74.30;;;;;;4978407;28;20050;-62
2023/03/16 02:17:15;;;;;;;10.40;6.10;;;2.60;75.30;;;;;;4982271;28;20049;-62
2023/03/16 02:19:58;;;;;;;8.63;6.32;;;2.60;74.50;;;;;;4976508;28;20039;-63
2023/03/16 02:22:24;;;;;;;8.55;6.43;;;2.60;74.70;;;;;;4978756;28;20034;-62
2023/03/16 02:24:54;;;;;;;7.85;5.88;;;2.60;74.60;;;;;;4979025;28;20042;-63
2023/03/16 02:27:46;;;;;;;10.18;6.60;;;2.60;74.60;;;;;;4976920;28;20041;-62
2023/03/16 02:30:13;;;;;;;8.10;6.22;;;2.60;74.80;;;;;;4974850;28;20047;-63
2023/03/16 02:32:40;;;;;;;9.80;6.25;;;2.50;74.40;;;;;;4979097;28;20409;-63
2023/03/16 02:35:07;;;;;;;9.43;6.38;;;2.50;74.50;;;;;;4995245;28;20092;-62
2023/03/16 02:37:33;;;;;;;8.27;6.38;;;2.50;74.50;;;;;;4976770;28;20113;-63
2023/03/16 02:40:00;;;;;;;6.82;6.10;;;2.50;74.50;;;;;;4982753;28;20121;-62
2023/03/16 02:42:28;;;;;;;11.00;6.53;;;2.40;74.60;;;;;;4980522;28;20054;-61
2023/03/16 02:44:59;;;;;;;9.23;6.57;;;2.40;74.60;;;;;;4980931;28;20086;-63
2023/03/16 02:47:38;;;;;;;10.88;6.90;;;2.40;74.80;;;;;;4978861;28;20317;-62
2023/03/16 02:50:05;;;;;;;10.77;7.32;;;2.40;74.80;;;;;;4982525;28;20034;-62
2023/03/16 02:52:35;;;;;;;12.63;7.18;;;2.40;74.50;;;;;;4980382;28;20038;-62
2023/03/16 02:55:02;;;;;;;10.55;7.00;;;2.40;74.50;;;;;;4981368;28;20048;-62
2023/03/16 02:57:28;;;;;;;10.80;7.07;;;2.40;74.50;;;;;;4986987;28;20506;-61
2023/03/16 02:59:54;;;;;;;10.80;7.13;;;2.40;74.30;;;;;;4980483;28;20124;-62
2023/03/16 03:02:19;;;;;;;10.25;6.60;;;2.40;74.40;;;;;;4979418;28;20093;-63
2023/03/16 03:04:45;;;;;;;12.30;6.88;;;2.40;74.50;;;;;;4982126;28;20096;-63
2023/03/16 03:07:14;;;;;;;9.15;6.78;;;2.40;74.60;;;;;;4981575;28;20135;-60
2023/03/16 03:09:43;;;;;;;9.60;7.03;;;2.40;74.60;;;;;;4982729;28;20121;-63
2023/03/16 03:12:10;;;;;;;9.57;6.57;;;2.40;74.40;;;;;;4975067;28;20089;-61
2023/03/16 03:14:39;;;;;;;9.73;7.15;;;2.40;74.50;;;;;;4979834;28;20340;-62
2023/03/16 03:17:09;;;;;;;8.98;7.07;;;2.40;74.60;;;;;;4979151;28;20053;-62
2023/03/16 03:19:35;;;;;;;11.02;7.10;;;2.40;74.70;;;;;;4977697;28;20535;-63
2023/03/16 03:22:03;;;;;;;10.95;6.95;;;2.40;74.60;;;;;;4974970;28;20067;-61
2023/03/16 03:24:30;;;;;;;10.60;7.43;;;2.40;74.80;;;;;;4977290;28;20041;-62
2023/03/16 03:26:57;;;;;;;11.57;8.27;;;2.40;74.60;;;;;;4979917;28;20066;-63
2023/03/16 03:29:22;;;;;;;23.15;9.43;;;2.40;74.70;;;;;;4974901;28;20124;-62
2023/03/16 03:31:48;;;;;;;103.45;11.25;;;2.40;75.00;;;;;;4981771;28;20113;-60
2023/03/16 03:34:14;;;;;;;56.70;10.75;;;2.40;75.30;;;;;;4973311;28;20038;-61
2023/03/16 03:36:40;;;;;;;71.50;11.05;;;2.40;75.60;;;;;;4973562;28;20035;-62
2023/03/16 03:39:06;;;;;;;20.95;9.27;;;2.40;75.90;;;;;;4978307;28;20037;-62
2023/03/16 03:41:32;;;;;;;124.97;11.07;;;2.40;76.10;;;;;;4971161;28;20533;-60
2023/03/16 03:43:59;;;;;;;40.03;9.23;;;2.40;76.20;;;;;;4975090;28;20108;-64
2023/03/16 03:46:25;;;;;;;60.72;9.65;;;2.40;76.20;;;;;;4978797;28;20038;-62
2023/03/16 03:48:51;;;;;;;132.90;11.45;;;2.40;76.30;;;;;;4974773;28;20049;-62
2023/03/16 03:51:17;;;;;;;120.63;12.10;;;2.30;76.40;;;;;;4974354;28;20038;-63
2023/03/16 03:53:42;;;;;;;220.75;13.32;;;2.30;76.50;;;;;;4980428;28;20045;-62
2023/03/16 03:56:08;;;;;;;87.72;10.00;;;2.30;76.70;;;;;;4974862;28;20043;-60
2023/03/16 03:58:34;;;;;;;151.27;10.35;;;2.20;76.70;;;;;;4974500;28;20142;-59
2023/03/16 04:01:00;;;;;;;57.65;9.65;;;2.20;76.70;;;;;;4979053;28;20593;-60
2023/03/16 04:03:25;;;;;;;132.20;10.93;;;2.20;76.90;;;;;;4973081;28;20110;-60
2023/03/16 04:05:51;;;;;;;139.52;12.30;;;2.20;77.10;;;;;;4973135;28;20114;-61
2023/03/16 04:08:17;;;;;;;116.10;10.88;;;2.20;77.40;;;;;;4976982;28;20546;-59
2023/03/16 04:10:43;;;;;;;94.45;11.13;;;2.10;77.50;;;;;;4974706;28;20065;-62
2023/03/16 04:13:09;;;;;;;68.13;8.85;;;2.20;77.70;;;;;;4975494;28;20113;-61
2023/03/16 04:15:37;;;;;;;88.70;9.40;;;2.20;77.60;;;;;;4978629;28;20586;-62
2023/03/16 04:18:03;;;;;;;63.88;10.43;;;2.10;77.30;;;;;;4975154;28;20034;-61
2023/03/16 04:20:28;;;;;;;33.20;8.60;;;2.10;77.30;;;;;;4971377;28;20064;-61
2023/03/16 04:22:57;;;;;;;65.93;10.00;;;2.10;77.40;;;;;;4976979;28;20399;-59
2023/03/16 04:25:25;;;;;;;36.47;9.10;;;2.10;77.40;;;;;;4980044;28;20050;-62
2023/03/16 04:27:51;;;;;;;79.70;8.60;;;2.10;77.60;;;;;;4977173;28;20041;-61
2023/03/16 04:30:17;;;;;;;47.25;8.73;;;2.10;77.60;;;;;;4974734;28;20057;-63
2023/03/16 04:32:42;;;;;;;17.67;7.88;;;2.10;77.50;;;;;;4979505;28;20121;-62
2023/03/16 04:35:09;;;;;;;102.63;9.75;;;2.10;77.50;;;;;;4995327;28;20498;-63
2023/03/16 04:37:35;;;;;;;69.05;9.38;;;2.00;77.50;;;;;;4979983;28;20188;-61
2023/03/16 04:40:08;;;;;;;58.78;9.70;;;2.00;77.40;;;;;;4986370;28;20112;-59
2023/03/16 04:42:34;;;;;;;31.02;8.75;;;2.00;77.40;;;;;;4979029;28;20046;-60
2023/03/16 04:45:00;;;;;;;32.08;8.35;;;1.90;77.10;;;;;;4981040;28;20454;-63
2023/03/16 04:47:26;;;;;;;38.20;14.30;;;1.90;77.20;;;;;;4981116;28;20185;-62
2023/03/16 04:49:52;;;;;;;17.92;9.98;;;1.90;77.40;;;;;;4979251;28;20126;-62
2023/03/16 04:52:18;;;;;;;11.48;8.43;;;1.90;77.60;;;;;;4977779;28;20034;-62
2023/03/16 04:54:44;;;;;;;11.55;8.45;;;1.90;77.60;;;;;;4979374;28;20065;-61
2023/03/16 04:57:10;;;;;;;14.38;9.27;;;1.90;77.60;;;;;;4988991;28;20027;-61
2023/03/16 04:59:35;;;;;;;14.02;8.20;;;1.90;77.80;;;;;;4986670;28;20056;-62
2023/03/16 05:02:01;;;;;;;18.33;8.77;;;1.90;77.80;;;;;;4985897;28;20133;-61
2023/03/16 05:04:27;;;;;;;12.02;8.38;;;1.90;77.80;;;;;;4987237;28;20034;-61
2023/03/16 05:06:52;;;;;;;25.23;9.57;;;1.90;77.60;;;;;;4985850;28;20639;-61
2023/03/16 05:09:19;;;;;;;27.23;14.18;;;1.90;77.50;;;;;;4978491;28;20049;-60
2023/03/16 05:11:45;;;;;;;22.13;9.80;;;1.90;77.40;;;;;;4974889;28;20036;-62
2023/03/16 05:14:10;;;;;;;33.72;9.98;;;1.90;77.40;;;;;;4981300;28;20034;-62
2023/03/16 05:16:36;;;;;;;142.13;12.23;;;1.90;77.40;;;;;;4975711;28;20078;-61
2023/03/16 05:19:02;;;;;;;103.32;12.50;;;1.90;77.40;;;;;;4982975;28;20403;-62
2023/03/16 05:21:30;;;;;;;319.65;15.95;;;1.90;77.40;;;;;;4974714;28;20402;-61
2023/03/16 05:23:56;;;;;;;182.35;13.52;;;1.90;77.70;;;;;;4973568;28;20046;-62
2023/03/16 05:26:24;;;;;;;127.57;11.40;;;1.90;77.80;;;;;;4974001;28;20225;-61
2023/03/16 05:28:50;;;;;;;106.82;10.07;;;1.80;77.80;;;;;;4984181;28;20096;-61
2023/03/16 05:31:17;;;;;;;225.90;14.23;;;1.70;78.00;;;;;;4985749;28;20042;-60
2023/03/16 05:33:43;;;;;;;230.98;14.98;;;1.70;78.20;;;;;;4985502;28;20061;-62
2023/03/16 05:36:09;;;;;;;58.58;10.57;;;1.70;78.30;;;;;;4986027;28;20560;-61
2023/03/16 05:38:35;;;;;;;34.72;11.02;;;1.60;78.50;;;;;;4986528;28;20136;-60
2023/03/16 05:41:03;;;;;;;126.68;12.35;;;1.60;78.80;;;;;;4986639;28;20034;-61
2023/03/16 05:43:29;;;;;;;172.93;13.40;;;1.60;79.00;;;;;;4986046;28;20049;-62
2023/03/16 05:45:55;;;;;;;152.00;12.77;;;1.60;79.00;;;;;;4984339;28;20350;-62
2023/03/16 05:48:24;;;;;;;346.25;16.60;;;1.70;79.20;;;;;;4986705;28;20026;-60
2023/03/16 05:50:50;;;;;;;55.05;10.65;;;1.70;79.30;;;;;;4986198;28;20058;-62
2023/03/16 05:53:17;;;;;;;28.80;10.73;;;1.70;79.10;;;;;;4983835;28;20117;-62
2023/03/16 05:55:42;;;;;;;122.05;12.02;;;1.60;79.10;;;;;;4985655;28;20122;-63
2023/03/16 05:58:08;;;;;;;293.55;16.77;;;1.60;79.40;;;;;;4985424;28;20113;-62
2023/03/16 06:00:34;;;;;;;171.35;15.98;;;1.70;79.50;;;;;;4984932;28;20250;-63
2023/03/16 06:03:00;;;;;;;73.97;11.82;;;1.60;79.30;;;;;;4984592;28;20049;-62
2023/03/16 06:05:27;;;;;;;96.97;13.68;;;1.60;79.50;;;;;;4984706;28;20581;-63
2023/03/16 06:07:53;;;;;;;67.20;11.80;;;1.60;79.60;;;;;;4985570;28;20410;-59
2023/03/16 06:10:20;;;;;;;439.77;22.65;;;1.70;79.80;;;;;;4984226;28;20034;-60
2023/03/16 06:12:45;;;;;;;182.88;15.40;;;1.70;80.10;;;;;;4984912;28;20050;-61
2023/03/16 06:15:11;;;;;;;28.52;11.80;;;1.70;79.90;;;;;;4985087;28;20042;-61
2023/03/16 06:17:38;;;;;;;35.85;12.30;;;1.70;79.80;;;;;;4986604;28;20086;-60
2023/03/16 06:20:09;;;;;;;78.38;13.52;;;1.70;80.00;;;;;;4985032;28;20042;-59
2023/03/16 06:22:37;;;;;;;60.63;11.63;;;1.70;80.30;;;;;;4983690;28;20038;-62
2023/03/16 06:25:03;;;;;;;33.35;11.50;;;1.70;80.40;;;;;;4984558;28;20046;-60
2023/03/16 06:27:29;;;;;;;25.80;11.55;;;1.70;80.50;;;;;;4985915;28;20249;-61
2023/03/16 06:29:54;;;;;;;53.35;11.80;;;1.80;80.60;;;;;;4985004;28;20105;-61
2023/03/16 06:32:21;;;;;;;73.00;12.23;;;1.80;80.60;;;;;;4986089;28;20039;-62
2023/03/16 06:34:47;;;;;;;92.55;12.60;;;1.80;80.60;;;;;;4982896;28;20031;-63
2023/03/16 06:37:12;;;;;;;51.05;10.88;;;1.90;80.50;;;;;;4985716;28;20339;-62
2023/03/16 06:39:38;;;;;;;48.35;12.27;;;1.90;80.40;;;;;;4985543;28;20101;-62
2023/03/16 06:42:04;;;;;;;70.65;11.60;;;1.90;80.50;;;;;;4984126;28;20038;-61
2023/03/16 06:44:30;;;;;;;101.93;12.23;;;1.90;80.40;;;;;;4985564;28;20073;-63
2023/03/16 06:46:56;;;;;;;184.75;13.57;;;1.90;80.40;;;;;;4984007;28;20033;-62
2023/03/16 06:49:22;;;;;;;46.67;10.57;;;1.90;80.40;;;;;;4985111;28;20056;-62
2023/03/16 06:51:47;;;;;;;84.30;10.27;;;1.80;80.30;;;;;;4984980;28;20766;-62
2023/03/16 06:54:13;;;;;;;17.95;9.60;;;1.80;80.50;;;;;;4984192;28;20034;-61
2023/03/16 06:56:39;;;;;;;113.50;11.60;;;2.00;80.70;;;;;;4986024;28;20065;-62
2023/03/16 06:59:05;;;;;;;88.78;10.68;;;1.80;81.10;;;;;;4986728;28;20034;-62
2023/03/16 07:01:31;;;;;;;45.63;9.60;;;1.80;81.10;;;;;;4986831;28;20159;-62
2023/03/16 07:03:56;;;;;;;196.38;14.73;;;1.80;80.90;;;;;;4986263;28;20093;-59
2023/03/16 07:06:22;;;;;;;134.25;12.57;;;1.70;81.30;;;;;;4987022;28;20502;-62
2023/03/16 07:08:47;;;;;;;41.72;9.45;;;1.70;81.30;;;;;;4985845;28;20034;-61
2023/03/16 07:11:13;;;;;;;176.73;13.50;;;1.70;81.20;;;;;;4983390;28;20494;-62
2023/03/16 07:13:39;;;;;;;66.20;10.68;;;1.60;81.70;;;;;;4982702;28;20498;-62
2023/03/16 07:16:06;;;;;;;77.40;10.57;;;1.60;81.80;;;;;;4984819;28;20070;-61
2023/03/16 07:18:31;;;;;;;52.40;11.27;;;1.60;81.80;;;;;;4982953;28;20502;-63
2023/03/16 07:20:57;;;;;;;101.28;12.25;;;1.60;82.00;;;;;;4984413;28;20486;-61
2023/03/16 07:23:23;;;;;;;73.05;10.13;;;1.60;82.30;;;;;;4984008;28;20062;-61
2023/03/16 07:25:50;;;;;;;240.98;14.27;;;1.60;82.50;;;;;;4984593;28;20030;-62
2023/03/16 07:28:17;;;;;;;44.72;10.10;;;1.70;82.60;;;;;;4984564;28;20437;-62
2023/03/16 07:30:44;;;;;;;27.85;10.00;;;1.80;82.80;;;;;;4984496;28;20026;-61
2023/03/16 07:33:10;;;;;;;88.05;10.95;;;1.70;82.70;;;;;;4983359;28;20057;-62
2023/03/16 07:35:36;;;;;;;71.95;10.15;;;1.80;82.90;;;;;;4985139;28;20494;-62
2023/03/16 07:38:02;;;;;;;85.47;11.18;;;1.80;83.00;;;;;;4983377;28;20087;-60
2023/03/16 07:40:28;;;;;;;91.10;12.77;;;1.80;82.80;;;;;;4983126;28;20137;-60
2023/03/16 07:42:54;;;;;;;17.55;10.18;;;1.90;82.80;;;;;;4984019;28;20667;-60
2023/03/16 07:45:20;;;;;;;108.18;12.55;;;1.90;82.70;;;;;;4984670;28;20046;-60
2023/03/16 07:47:46;;;;;;;89.38;11.60;;;2.00;83.00;;;;;;4983783;28;20048;-62
2023/03/16 07:50:15;;;;;;;160.23;13.32;;;2.00;83.10;;;;;;4976496;28;20038;-61
2023/03/16 07:52:41;;;;;;;141.43;13.15;;;2.00;83.00;;;;;;4982089;28;20035;-60
2023/03/16 07:55:07;;;;;;;183.40;15.68;;;2.00;82.80;;;;;;4985128;28;20492;-61
2023/03/16 07:57:33;;;;;;;30.02;9.95;;;2.10;82.90;;;;;;4985288;28;20599;-61
2023/03/16 07:59:59;;;;;;;107.78;12.38;;;2.10;82.90;;;;;;4982447;28;20042;-61
2023/03/16 08:02:24;;;;;;;71.28;11.63;;;2.20;82.90;;;;;;4983996;28;20041;-60
2023/03/16 08:04:50;;;;;;;101.07;12.15;;;2.20;83.00;;;;;;4984901;28;20050;-60
2023/03/16 08:07:16;;;;;;;81.35;11.20;;;2.20;83.00;;;;;;4986268;28;20042;-60
2023/03/16 08:09:42;;;;;;;34.25;10.35;;;2.20;82.90;;;;;;4988333;28;20105;-60
2023/03/16 08:12:08;;;;;;;72.90;11.32;;;2.20;82.80;;;;;;4984635;28;20038;-60
2023/03/16 08:14:35;;;;;;;20.30;10.32;;;2.30;83.30;;;;;;4988080;28;20080;-60
2023/03/16 08:17:06;;;;;;;38.90;10.55;;;2.30;83.30;;;;;;4988086;28;20031;-61
2023/03/16 08:19:32;;;;;;;16.02;10.05;;;2.40;83.70;;;;;;4986193;28;20062;-62
2023/03/16 08:22:00;;;;;;;91.28;12.20;;;2.40;83.60;;;;;;4984579;28;20038;-61
2023/03/16 08:24:26;;;;;;;23.75;10.10;;;2.50;83.90;;;;;;4987487;28;20441;-63
2023/03/16 08:26:52;;;;;;;16.58;10.07;;;2.50;83.60;;;;;;4987274;28;20043;-63
2023/03/16 08:29:18;;;;;;;31.02;10.77;;;2.50;83.60;;;;;;4986939;28;20089;-61
2023/03/16 08:31:44;;;;;;;17.73;10.07;;;2.60;83.90;;;;;;4987157;28;20066;-63
2023/03/16 08:34:10;;;;;;;18.90;10.02;;;2.60;83.50;;;;;;4988128;28;20069;-62
2023/03/16 08:36:36;;;;;;;14.00;9.45;;;2.70;83.70;;;;;;4986282;28;20034;-62
2023/03/16 08:39:04;;;;;;;14.10;9.65;;;2.80;83.70;;;;;;4985945;28;20097;-62
2023/03/16 08:41:31;;;;;;;14.82;9.57;;;2.90;83.90;;;;;;4984929;28;20518;-61
2023/03/16 08:43:57;;;;;;;27.98;11.63;;;3.00;83.90;;;;;;4987466;28;20081;-62
2023/03/16 08:46:23;;;;;;;20.83;10.65;;;3.10;83.80;;;;;;4986479;28;20403;-62
2023/03/16 08:48:49;;;;;;;17.52;10.48;;;3.10;83.20;;;;;;4985442;28;20042;-62
2023/03/16 08:51:16;;;;;;;32.60;11.23;;;3.20;83.00;;;;;;4985736;28;20044;-61
2023/03/16 08:53:42;;;;;;;16.58;10.13;;;3.20;82.80;;;;;;4987501;28;20058;-59
2023/03/16 08:56:11;;;;;;;16.08;10.20;;;3.20;82.40;;;;;;4989514;28;20026;-60
2023/03/16 08:58:38;;;;;;;13.63;10.02;;;3.30;82.60;;;;;;4988621;28;20105;-57
2023/03/16 09:01:05;;;;;;;16.67;10.07;;;3.30;82.80;;;;;;4987010;28;20030;-60
2023/03/16 09:03:32;;;;;;;16.10;10.57;;;3.40;82.60;;;;;;4983540;28;20027;-60
2023/03/16 09:06:09;;;;;;;12.82;9.55;;;3.50;82.80;;;;;;4987960;28;20031;-60
2023/03/16 09:08:35;;;;;;;16.50;10.02;;;3.60;83.20;;;;;;4984597;28;20042;-62
2023/03/16 09:11:10;;;;;;;13.00;9.45;;;3.60;82.80;;;;;;4988517;28;20045;-60
2023/03/16 09:13:37;;;;;;;;;;;3.80;83.10;;;;;;4989119;28;20042;-61
2023/03/16 09:16:03;;;;;;;16.63;10.70;;;3.90;84.10;;;;;;4987182;28;19929;-60
2023/03/16 09:18:30;;;;;;;18.67;11.75;;;4.00;82.60;;;;;;4986444;28;20038;-60
2023/03/16 09:21:01;;;;;;;18.42;12.25;;;4.00;82.20;;;;;;4987898;28;20046;-61
2023/03/16 09:23:27;;;;;;;15.90;11.43;;;4.00;82.40;;;;;;4986025;28;20181;-61
2023/03/16 09:25:58;;;;;;;17.10;11.30;;;4.10;82.60;;;;;;4986743;28;20030;-61
2023/03/16 09:28:26;;;;;;;13.68;10.35;;;4.10;82.50;;;;;;4987847;28;20030;-61
2023/03/16 09:30:53;;;;;;;15.10;10.65;;;4.10;82.00;;;;;;4986395;28;20034;-62
2023/03/16 09:33:19;;;;;;;16.90;11.68;;;4.10;81.90;;;;;;4987536;28;20038;-62
2023/03/16 09:35:45;;;;;;;22.85;11.38;;;4.10;82.30;;;;;;4987550;28;20588;-62
2023/03/16 09:38:11;;;;;;;14.40;9.43;;;4.10;82.20;;;;;;4987671;28;20042;-62
2023/03/16 09:40:37;;;;;;;14.52;9.65;;;4.20;82.60;;;;;;4987809;28;20124;-62
2023/03/16 09:43:48;;;;;;;13.90;9.73;;;4.30;82.50;;;;;;4987642;28;20038;-60
2023/03/16 09:46:26;;;;;;;13.55;9.98;;;4.40;83.30;;;;;;4923919;29;20071;-61
2023/03/16 09:48:52;;;;;;;15.50;9.75;;;4.50;82.60;;;;;;4983437;28;20442;-60
2023/03/16 09:51:43;;;;;;;15.77;10.52;;;4.60;82.70;;;;;;4989293;28;20450;-62
2023/03/16 09:54:34;;;;;;;14.93;10.48;;;4.70;83.50;;;;;;4987186;28;20494;-61
2023/03/16 09:57:02;;;;;;;15.75;10.40;;;4.90;83.10;;;;;;4987633;28;20042;-61
2023/03/16 09:59:28;;;;;;;15.77;10.85;;;5.00;82.30;;;;;;4986670;28;20113;-61
2023/03/16 10:02:20;;;;;;;17.25;10.75;;;5.10;82.00;;;;;;4987776;28;20121;-61
2023/03/16 10:05:11;;;;;;;14.05;10.80;;;5.30;82.30;;;;;;4983978;28;20049;-61
2023/03/16 10:08:06;;;;;;;15.35;10.23;;;5.30;81.60;;;;;;4987195;28;20726;-60
2023/03/16 10:11:17;;;;;;;15.02;10.10;;;5.40;82.00;;;;;;4987798;28;20521;-60
2023/03/16 10:14:12;;;;;;;14.23;10.07;;;5.50;82.10;;;;;;4968823;28;20085;-60
2023/03/16 10:16:46;;;;;;;13.82;10.52;;;5.60;82.10;;;;;;4986581;28;20486;-62
2023/03/16 10:19:20;;;;;;;15.00;10.90;;;5.70;81.90;;;;;;4986117;28;20069;-61
2023/03/16 10:21:51;;;;;;;15.60;10.45;;;5.70;81.30;;;;;;4984620;28;20076;-62
2023/03/16 10:24:33;;;;;;;14.10;10.35;;;5.80;80.90;;;;;;4985156;28;20619;-61
2023/03/16 10:26:59;;;;;;;14.70;10.95;;;5.90;81.00;;;;;;4987349;28;20178;-62
2023/03/16 10:29:29;;;;;;;12.98;9.75;;;6.00;80.60;;;;;;4986880;28;20026;-62
2023/03/16 10:32:00;;;;;;;15.57;9.95;;;6.00;80.10;;;;;;4987051;28;20035;-62
2023/03/16 10:34:26;;;;;;;14.35;10.95;;;6.00;80.40;;;;;;4984340;28;20085;-62
2023/03/16 10:36:53;;;;;;;12.02;9.85;;;6.10;80.70;;;;;;4986038;28;20042;-62
2023/03/16 10:39:19;;;;;;;16.23;10.68;;;6.10;80.80;;;;;;4985222;28;20035;-63
2023/03/16 10:41:53;;;;;;;12.80;9.90;;;6.20;81.00;;;;;;4987854;28;20065;-63
2023/03/16 10:44:24;;;;;;;;;;;6.30;81.30;;;;;;4985288;28;20113;-62
2023/03/16 10:46:59;;;;;;;11.98;9.35;;;6.40;82.10;;;;;;4984954;28;20025;-61
2023/03/16 10:49:26;;;;;;;;;;;6.50;80.70;;;;;;4987088;28;20488;-61
2023/03/16 10:51:58;;;;;;;16.42;10.18;;;6.70;81.00;;;;;;4984476;28;19917;-62
2023/03/16 10:54:36;;;;;;;14.15;10.70;;;6.80;80.20;;;;;;4986766;28;20410;-61
2023/03/16 10:57:19;;;;;;;13.40;9.80;;;6.80;80.00;;;;;;4987385;28;20038;-60
2023/03/16 10:59:52;;;;;;;15.32;10.38;;;6.90;79.80;;;;;;4987916;28;20041;-60
2023/03/16 11:02:22;;;;;;;13.40;10.38;;;6.90;79.90;;;;;;4988399;28;20046;-62
2023/03/16 11:04:48;;;;;;;13.07;10.35;;;7.00;79.80;;;;;;4987473;28;20038;-61
2023/03/16 11:07:17;;;;;;;13.32;10.23;;;7.10;79.80;;;;;;4984466;28;20126;-62
2023/03/16 11:09:43;;;;;;;15.07;10.55;;;7.10;79.60;;;;;;4985323;28;20038;-61
2023/03/16 11:12:22;;;;;;;17.45;11.85;;;7.10;79.50;;;;;;4986520;28;20050;-61
2023/03/16 11:14:48;;;;;;;15.85;11.48;;;7.20;80.10;;;;;;4985953;28;20096;-59
2023/03/16 11:17:29;;;;;;;16.75;11.40;;;7.20;80.20;;;;;;4983736;28;20050;-62
2023/03/16 11:20:11;;;;;;;15.38;11.43;;;7.30;80.70;;;;;;4985741;28;20109;-61
2023/03/16 11:22:38;;;;;;;16.75;10.82;;;7.40;80.80;;;;;;4985559;28;20086;-59
2023/03/16 11:25:16;;;;;;;13.68;10.75;;;7.40;80.40;;;;;;4984323;28;20509;-59
2023/03/16 11:28:05;;;;;;;13.27;10.43;;;7.50;80.50;;;;;;4985682;28;20038;-61
2023/03/16 11:30:45;;;;;;;14.10;10.30;;;7.60;80.50;;;;;;4974960;28;20038;-60
2023/03/16 11:33:13;;;;;;;12.90;10.07;;;7.70;80.30;;;;;;4986429;28;20043;-61
2023/03/16 11:36:05;;;;;;;14.68;9.63;;;7.80;80.20;;;;;;4984941;28;20035;-60
2023/03/16 11:38:50;;;;;;;13.98;10.18;;;7.90;79.70;;;;;;4983943;28;20038;-62
2023/03/16 11:41:47;;;;;;;12.47;9.37;;;8.00;79.50;;;;;;4987200;28;20046;-61
2023/03/16 11:44:23;;;;;;;11.45;9.02;;;8.20;80.10;;;;;;4990051;28;20034;-59
2023/03/16 11:47:06;;;;;;;12.35;9.43;;;8.30;79.30;;;;;;4989793;28;20031;-60
2023/03/16 11:49:55;;;;;;;11.80;8.65;;;8.40;78.20;;;;;;4987894;28;20036;-59
2023/03/16 11:52:39;;;;;;;12.88;8.70;;;8.50;78.20;;;;;;4989770;28;20528;-62
2023/03/16 11:55:38;;;;;;;10.38;8.43;;;8.70;77.20;;;;;;4987925;28;20039;-62
2023/03/16 11:58:28;;;;;;;12.40;8.80;;;8.70;77.10;;;;;;4988692;28;20133;-60
2023/03/16 12:01:00;;;;;;;10.55;8.30;;;8.80;76.90;;;;;;4988075;28;20044;-59
2023/03/16 12:03:53;;;;;;;10.93;9.00;;;8.90;77.20;;;;;;4988387;28;20535;-60
2023/03/16 12:06:39;;;;;;;9.95;7.53;;;9.00;77.00;;;;;;4989105;28;20046;-60
2023/03/16 12:09:21;;;;;;;9.20;7.22;;;9.10;76.30;;;;;;4988431;28;20463;-62
2023/03/16 12:12:04;;;;;;;11.68;7.72;;;9.20;75.60;;;;;;4988649;28;20462;-61
2023/03/16 12:14:46;;;;;;;9.38;6.90;;;9.30;74.90;;;;;;4989680;28;20113;-60
2023/03/16 12:17:23;;;;;;;13.48;7.88;;;9.40;75.20;;;;;;4988914;28;20502;-62
2023/03/16 12:20:04;;;;;;;12.63;7.43;;;9.50;75.00;;;;;;4986965;28;20065;-63
2023/03/16 12:22:48;;;;;;;9.60;7.72;;;9.60;74.70;;;;;;4989309;28;20580;-62
2023/03/16 12:25:23;;;;;;;8.57;6.85;;;9.70;74.60;;;;;;4989300;28;20042;-60
2023/03/16 12:27:53;;;;;;;9.70;7.45;;;9.80;74.20;;;;;;4989314;28;20042;-61
2023/03/16 12:30:38;;;;;;;9.38;7.25;;;9.80;73.60;;;;;;4986799;28;20057;-60
2023/03/16 12:33:13;;;;;;;;;;;9.90;73.70;;;;;;4988216;28;20042;-62
2023/03/16 12:35:58;;;;;;;7.32;6.45;;;10.00;71.70;;;;;;4988501;28;19921;-61
2023/03/16 12:38:37;;;;;;;8.13;6.10;;;10.00;72.30;;;;;;4989139;28;20038;-62
2023/03/16 12:41:23;;;;;;;8.05;6.03;;;10.10;72.10;;;;;;4987169;28;20089;-63
2023/03/16 12:44:08;;;;;;;6.60;5.25;;;10.20;71.30;;;;;;4957912;28;20310;-60
2023/03/16 12:46:59;;;;;;;5.82;5.13;;;10.20;69.00;;;;;;4986378;28;20401;-61
2023/03/16 12:49:27;;;;;;;5.53;4.70;;;10.30;68.20;;;;;;4986860;28;20030;-61
2023/03/16 12:52:19;;;;;;;5.03;4.53;;;10.40;69.30;;;;;;4986666;28;20036;-61
2023/03/16 12:55:23;;;;;;;6.30;4.82;;;10.50;68.40;;;;;;4985888;28;20042;-62
2023/03/16 12:57:57;;;;;;;5.32;4.50;;;10.60;68.50;;;;;;4961258;28;20524;-61
2023/03/16 13:00:36;;;;;;;6.13;4.38;;;10.70;69.50;;;;;;4990313;28;20038;-60